地図

経路データ

SID SEASON NUMBER BASIN SUBBASIN NAME ISO_TIME NATURE LAT LON WMO_WIND WMO_PRES WMO_AGENCY TRACK_TYPE DIST2LAND LANDFALL IFLAG USA_AGENCY USA_ATCF_ID USA_LAT USA_LON USA_RECORD USA_STATUS USA_WIND USA_PRES USA_SSHS USA_R34_NE USA_R34_SE USA_R34_SW USA_R34_NW USA_R50_NE USA_R50_SE USA_R50_SW USA_R50_NW USA_R64_NE USA_R64_SE USA_R64_SW USA_R64_NW USA_POCI USA_ROCI USA_RMW USA_EYE TOKYO_LAT TOKYO_LON TOKYO_GRADE TOKYO_WIND TOKYO_PRES TOKYO_R50_DIR TOKYO_R50_LONG TOKYO_R50_SHORT TOKYO_R30_DIR TOKYO_R30_LONG TOKYO_R30_SHORT TOKYO_LAND CMA_LAT CMA_LON CMA_CAT CMA_WIND CMA_PRES HKO_LAT HKO_LON HKO_CAT HKO_WIND HKO_PRES NEWDELHI_LAT NEWDELHI_LON NEWDELHI_GRADE NEWDELHI_WIND NEWDELHI_PRES NEWDELHI_CI NEWDELHI_DP NEWDELHI_POCI REUNION_LAT REUNION_LON REUNION_TYPE REUNION_WIND REUNION_PRES REUNION_TNUM REUNION_CI REUNION_RMW REUNION_R34_NE REUNION_R34_SE REUNION_R34_SW REUNION_R34_NW REUNION_R50_NE REUNION_R50_SE REUNION_R50_SW REUNION_R50_NW REUNION_R64_NE REUNION_R64_SE REUNION_R64_SW REUNION_R64_NW BOM_LAT BOM_LON BOM_TYPE BOM_WIND BOM_PRES BOM_TNUM BOM_CI BOM_RMW BOM_R34_NE BOM_R34_SE BOM_R34_SW BOM_R34_NW BOM_R50_NE BOM_R50_SE BOM_R50_SW BOM_R50_NW BOM_R64_NE BOM_R64_SE BOM_R64_SW BOM_R64_NW BOM_ROCI BOM_POCI BOM_EYE BOM_POS_METHOD BOM_PRES_METHOD NADI_LAT NADI_LON NADI_CAT NADI_WIND NADI_PRES WELLINGTON_LAT WELLINGTON_LON WELLINGTON_WIND WELLINGTON_PRES DS824_LAT DS824_LON DS824_STAGE DS824_WIND DS824_PRES TD9636_LAT TD9636_LON TD9636_STAGE TD9636_WIND TD9636_PRES TD9635_LAT TD9635_LON TD9635_WIND TD9635_PRES TD9635_ROCI NEUMANN_LAT NEUMANN_LON NEUMANN_CLASS NEUMANN_WIND NEUMANN_PRES MLC_LAT MLC_LON MLC_CLASS MLC_WIND MLC_PRES USA_GUST BOM_GUST BOM_GUST_PER REUNION_GUST REUNION_GUST_PER USA_SEAHGT USA_SEARAD_NE USA_SEARAD_SE USA_SEARAD_SW USA_SEARAD_NW STORM_SPEED STORM_DIR
1990234N14248 1990 72 EP MM KENNA 1990-08-21 18:00:00 TS 14.0000 -111.600 30 1009 hurdat_epa main 925 925 O_____________ hurdat_epa EP141990 14.0000 -111.600 TD 30 1009 -1 11 294
1990234N14248 1990 72 EP MM KENNA 1990-08-21 21:00:00 TS 14.2177 -112.100 main 949 949 P_____________ EP141990 14.2177 -112.100 TD 30 1009 -1 11 292
1990234N14248 1990 72 EP MM KENNA 1990-08-22 00:00:00 TS 14.4000 -112.600 30 1009 hurdat_epa main 976 976 O_____________ hurdat_epa EP141990 14.4000 -112.600 TD 30 1009 -1 10 287
1990234N14248 1990 72 EP MM KENNA 1990-08-22 03:00:00 TS 14.5224 -113.100 main 994 991 P_____________ EP141990 14.5224 -113.100 TD 32 1007 -1 10 282
1990234N14248 1990 72 EP MM KENNA 1990-08-22 06:00:00 TS 14.6000 -113.600 35 1005 hurdat_epa main 1002 1002 O_____________ hurdat_epa EP141990 14.6000 -113.600 TS 35 1005 0 10 277
1990234N14248 1990 72 EP MM KENNA 1990-08-22 09:00:00 TS 14.6424 -114.108 main 1023 1018 P_____________ EP141990 14.6424 -114.108 TS 37 1004 0 10 276
1990234N14248 1990 72 EP MM KENNA 1990-08-22 12:00:00 TS 14.7000 -114.600 40 1003 hurdat_epa main 1037 1037 O_____________ hurdat_epa EP141990 14.7000 -114.600 TS 40 1003 0 9 281
1990234N14248 1990 72 EP MM KENNA 1990-08-22 15:00:00 TS 14.8274 -115.058 main 1052 1043 P_____________ EP141990 14.8274 -115.058 TS 42 1001 0 9 289
1990234N14248 1990 72 EP MM KENNA 1990-08-22 18:00:00 TS 15.0000 -115.500 45 1000 hurdat_epa main 1055 1052 O_____________ hurdat_epa EP141990 15.0000 -115.500 TS 45 1000 0 9 294
1990234N14248 1990 72 EP MM KENNA 1990-08-22 21:00:00 TS 15.2074 -115.950 main 1060 1060 P_____________ EP141990 15.2074 -115.950 TS 45 1000 0 10 295
1990234N14248 1990 72 EP MM KENNA 1990-08-23 00:00:00 TS 15.4000 -116.400 45 1000 hurdat_epa main 1074 1072 O_____________ hurdat_epa EP141990 15.4000 -116.400 TS 45 1000 0 9 291
1990234N14248 1990 72 EP MM KENNA 1990-08-23 03:00:00 TS 15.5373 -116.835 main 1092 1091 P_____________ EP141990 15.5373 -116.835 TS 47 998 0 9 283
1990234N14248 1990 72 EP MM KENNA 1990-08-23 06:00:00 TS 15.6000 -117.300 50 997 hurdat_epa main 1119 1119 O_____________ hurdat_epa EP141990 15.6000 -117.300 TS 50 997 0 10 272
1990234N14248 1990 72 EP MM KENNA 1990-08-23 09:00:00 TS 15.5801 -117.858 main 1163 1163 P_____________ EP141990 15.5801 -117.858 TS 52 995 0 11 265
1990234N14248 1990 72 EP MM KENNA 1990-08-23 12:00:00 TS 15.5000 -118.400 55 994 hurdat_epa main 1208 1208 O_____________ hurdat_epa EP141990 15.5000 -118.400 TS 55 994 0 9 259
1990234N14248 1990 72 EP MM KENNA 1990-08-23 15:00:00 TS 15.4073 -118.822 main 1247 1247 P_____________ EP141990 15.4073 -118.822 TS 55 994 0 8 255
1990234N14248 1990 72 EP MM KENNA 1990-08-23 18:00:00 TS 15.3000 -119.200 55 994 hurdat_epa main 1285 1285 O_____________ hurdat_epa EP141990 15.3000 -119.200 TS 55 994 0 8 254
1990234N14248 1990 72 EP MM KENNA 1990-08-23 21:00:00 TS 15.1999 -119.592 main 1319 1319 P_____________ EP141990 15.1999 -119.592 TS 55 994 0 8 255
1990234N14248 1990 72 EP MM KENNA 1990-08-24 00:00:00 TS 15.1000 -120.000 55 994 hurdat_epa main 1353 1353 O_____________ hurdat_epa EP141990 15.1000 -120.000 TS 55 994 0 8 255
1990234N14248 1990 72 EP MM KENNA 1990-08-24 03:00:00 TS 14.9849 -120.428 main 1388 1388 P_____________ EP141990 14.9849 -120.428 TS 55 993 0 9 257
1990234N14248 1990 72 EP MM KENNA 1990-08-24 06:00:00 TS 14.9000 -120.900 55 993 hurdat_epa main 1430 1430 O_____________ hurdat_epa EP141990 14.9000 -120.900 TS 55 993 0 10 264
1990234N14248 1990 72 EP MM KENNA 1990-08-24 09:00:00 TS 14.8849 -121.427 main 1464 1464 P_____________ EP141990 14.8849 -121.427 TS 55 993 0 11 270
1990234N14248 1990 72 EP MM KENNA 1990-08-24 12:00:00 TS 14.9000 -122.000 55 993 hurdat_epa main 1506 1506 O_____________ hurdat_epa EP141990 14.9000 -122.000 TS 55 993 0 11 270
1990234N14248 1990 72 EP MM KENNA 1990-08-24 15:00:00 TS 14.8850 -122.600 main 1550 1550 P_____________ EP141990 14.8850 -122.600 TS 57 991 0 12 270
1990234N14248 1990 72 EP MM KENNA 1990-08-24 18:00:00 TS 14.9000 -123.200 60 990 hurdat_epa main 1595 1595 O_____________ hurdat_epa EP141990 14.9000 -123.200 TS 60 990 0 11 275
1990234N14248 1990 72 EP MM KENNA 1990-08-24 21:00:00 TS 14.9773 -123.757 main 1632 1632 P_____________ EP141990 14.9773 -123.757 TS 62 988 0 11 281
1990234N14248 1990 72 EP MM KENNA 1990-08-25 00:00:00 TS 15.1000 -124.300 65 987 hurdat_epa main 1664 1664 O_____________ hurdat_epa EP141990 15.1000 -124.300 HU 65 987 1 11 285
1990234N14248 1990 72 EP MM KENNA 1990-08-25 03:00:00 TS 15.2573 -124.835 main 1689 1689 P_____________ EP141990 15.2572 -124.835 HU 65 986 1 11 286
1990234N14248 1990 72 EP MM KENNA 1990-08-25 06:00:00 TS 15.4000 -125.400 65 986 hurdat_epa main 1731 1731 O_____________ hurdat_epa EP141990 15.4000 -125.400 HU 65 986 1 12 281
1990234N14248 1990 72 EP MM KENNA 1990-08-25 09:00:00 TS 15.4724 -126.035 main 1773 1773 P_____________ EP141990 15.4724 -126.035 HU 67 984 1 13 275
1990234N14248 1990 72 EP MM KENNA 1990-08-25 12:00:00 TS 15.5000 -126.700 70 983 hurdat_epa main 1820 1820 O_____________ hurdat_epa EP141990 15.5000 -126.700 HU 70 983 1 13 271
1990234N14248 1990 72 EP MM KENNA 1990-08-25 15:00:00 TS 15.4848 -127.350 main 1868 1868 P_____________ EP141990 15.4848 -127.350 HU 70 983 1 13 270
1990234N14248 1990 72 EP MM KENNA 1990-08-25 18:00:00 TS 15.5000 -128.000 70 983 hurdat_epa main 1911 1911 O_____________ hurdat_epa EP141990 15.5000 -128.000 HU 70 983 1 13 276
1990234N14248 1990 72 EP MM KENNA 1990-08-25 21:00:00 TS 15.6199 -128.665 main 1954 1954 P_____________ EP141990 15.6199 -128.665 HU 72 981 1 13 283
1990234N14248 1990 72 EP MM KENNA 1990-08-26 00:00:00 TS 15.8000 -129.300 75 980 hurdat_epa main 1984 1984 O_____________ hurdat_epa EP141990 15.8000 -129.300 HU 75 980 1 12 287
1990234N14248 1990 72 EP MM KENNA 1990-08-26 03:00:00 TS 15.9848 -129.880 main 2014 2014 P_____________ EP141990 15.9848 -129.880 HU 75 980 1 11 291
1990234N14248 1990 72 EP MM KENNA 1990-08-26 06:00:00 TS 16.2000 -130.400 75 980 hurdat_epa main 2039 2039 O_____________ hurdat_epa EP141990 16.2000 -130.400 HU 75 980 1 11 296
1990234N14248 1990 72 EP MM KENNA 1990-08-26 09:00:00 TS 16.4498 -130.873 main 2064 2057 P_____________ EP141990 16.4498 -130.873 HU 72 981 1 10 300
1990234N14248 1990 72 EP MM KENNA 1990-08-26 12:00:00 TS 16.7000 -131.300 70 983 hurdat_epa main 2076 2076 O_____________ hurdat_epa EP141990 16.7000 -131.300 HU 70 983 1 9 299
1990234N14248 1990 72 EP MM KENNA 1990-08-26 15:00:00 TS 16.8924 -131.715 main 2095 2095 P_____________ EP141990 16.8924 -131.715 HU 70 983 1 9 298
1990234N14248 1990 72 EP MM KENNA 1990-08-26 18:00:00 TS 17.1000 -132.100 70 983 hurdat_epa main 2115 2115 O_____________ hurdat_epa EP141990 17.1000 -132.100 HU 70 983 1 9 305
1990234N14248 1990 72 EP MM KENNA 1990-08-26 21:00:00 TS 17.3849 -132.465 main 2129 2123 P_____________ EP141990 17.3849 -132.465 HU 70 983 1 9 312
1990234N14248 1990 72 EP MM KENNA 1990-08-27 00:00:00 TS 17.7000 -132.800 70 983 hurdat_epa main 2136 2136 O_____________ hurdat_epa EP141990 17.7000 -132.800 HU 70 983 1 9 314
1990234N14248 1990 72 EP MM KENNA 1990-08-27 03:00:00 TS 17.9925 -133.130 main 2143 2143 P_____________ EP141990 17.9925 -133.130 HU 70 983 1 8 316
1990234N14248 1990 72 EP MM KENNA 1990-08-27 06:00:00 TS 18.3000 -133.400 70 983 hurdat_epa main 2151 2142 O_____________ hurdat_epa EP141990 18.3000 -133.400 HU 70 983 1 8 327
1990234N14248 1990 72 EP MM KENNA 1990-08-27 09:00:00 TS 18.6499 -133.573 main 2151 2137 P_____________ EP141990 18.6499 -133.573 HU 70 983 1 8 338
1990234N14248 1990 72 EP MM KENNA 1990-08-27 12:00:00 TS 19.0000 -133.700 70 984 hurdat_epa main 2137 2130 O_____________ hurdat_epa EP141990 19.0000 -133.700 HU 70 984 1 7 338
1990234N14248 1990 72 EP MM KENNA 1990-08-27 15:00:00 TS 19.3000 -133.850 main 2139 2120 P_____________ EP141990 19.3000 -133.850 HU 67 985 1 7 335
1990234N14248 1990 72 EP MM KENNA 1990-08-27 18:00:00 TS 19.6000 -134.000 65 987 hurdat_epa main 2120 2099 O_____________ hurdat_epa EP141990 19.6000 -134.000 HU 65 987 1 7 335
1990234N14248 1990 72 EP MM KENNA 1990-08-27 21:00:00 TS 19.9500 -134.165 main 2097 2076 P_____________ EP141990 19.9500 -134.165 HU 60 990 0 8 338
1990234N14248 1990 72 EP MM KENNA 1990-08-28 00:00:00 TS 20.3000 -134.300 55 994 hurdat_epa main 2076 2057 O_____________ hurdat_epa EP141990 20.3000 -134.300 TS 55 994 0 7 343
1990234N14248 1990 72 EP MM KENNA 1990-08-28 03:00:00 TS 20.6225 -134.380 main 2057 2030 P_____________ EP141990 20.6225 -134.380 TS 55 995 0 6 351
1990234N14248 1990 72 EP MM KENNA 1990-08-28 06:00:00 TS 20.9000 -134.400 55 996 hurdat_epa main 2030 2013 O_____________ hurdat_epa EP141990 20.9000 -134.400 TS 55 996 0 5 0
1990234N14248 1990 72 EP MM KENNA 1990-08-28 09:00:00 TS 21.1450 -134.373 main 2013 1989 P_____________ EP141990 21.1450 -134.373 TS 50 998 0 4 13
1990234N14248 1990 72 EP MM KENNA 1990-08-28 12:00:00 TS 21.3000 -134.300 45 1000 hurdat_epa main 1989 1983 O_____________ hurdat_epa EP141990 21.3000 -134.300 TS 45 1000 0 3 42
1990234N14248 1990 72 EP MM KENNA 1990-08-28 15:00:00 TS 21.3300 -134.192 main 1983 1976 P_____________ EP141990 21.3300 -134.192 TS 42 1001 0 2 90
1990234N14248 1990 72 EP MM KENNA 1990-08-28 18:00:00 TS 21.3000 -134.100 40 1003 hurdat_epa main 1976 1976 O_____________ hurdat_epa EP141990 21.3000 -134.100 TS 40 1003 0 1 105
1990234N14248 1990 72 EP MM KENNA 1990-08-28 21:00:00 TS 21.3000 -134.070 main 1976 1976 P_____________ EP141990 21.3000 -134.070 TS 37 1004 0 0 0
1990234N14248 1990 72 EP MM KENNA 1990-08-29 00:00:00 TS 21.3000 -134.100 35 1005 hurdat_epa main 1976 1976 O_____________ hurdat_epa EP141990 21.3000 -134.100 TS 35 1005 0 1 275
1990234N14248 1990 72 EP MM KENNA 1990-08-29 03:00:00 TS 21.3074 -134.162 main 1983 1983 P_____________ EP141990 21.3074 -134.162 TS 32 1007 -1 2 270
1990234N14248 1990 72 EP MM KENNA 1990-08-29 06:00:00 TS 21.3000 -134.300 30 1009 hurdat_epa main 1989 1989 O_____________ hurdat_epa EP141990 21.3000 -134.300 TD 30 1009 -1 3 263
1990234N14248 1990 72 EP MM KENNA 1990-08-29 09:00:00 TS 21.2650 -134.527 main 2003 2003 P_____________ EP141990 21.2650 -134.527 TD 30 1009 -1 5 258
1990234N14248 1990 72 EP MM KENNA 1990-08-29 12:00:00 TS 21.2000 -134.800 30 1009 hurdat_epa main 2031 2031 O_____________ hurdat_epa EP141990 21.2000 -134.800 TD 30 1009 -1 5 253
1990234N14248 1990 72 EP MM KENNA 1990-08-29 15:00:00 TS 21.1224 -135.042 main 2053 2039 P_____________ EP141990 21.1224 -135.042 TD 30 1009 -1 5 247
1990234N14248 1990 72 EP MM KENNA 1990-08-29 18:00:00 TS 21.0000 -135.300 30 1009 hurdat_epa main 2039 2008 O_____________ hurdat_epa EP141990 21.0000 -135.300 TD 30 1009 -1 6 240
1990234N14248 1990 72 EP MM KENNA 1990-08-29 21:00:00 TS 20.8299 -135.577 main 2008 1976 P_____________ EP141990 20.8299 -135.577 TD 27 1009 -1 7 234
1990234N14248 1990 72 EP MM KENNA 1990-08-30 00:00:00 TS 20.6000 -135.900 25 1010 hurdat_epa main 1976 1945 O_____________ hurdat_epa EP141990 20.6000 -135.900 TD 25 1010 -1 8 231
1990234N14248 1990 72 EP MM KENNA 1990-08-30 03:00:00 TS 20.3073 -136.262 main 1935 1894 P_____________ EP141990 20.3073 -136.262 TD 25 1010 -1 10 231
1990234N14248 1990 72 EP MM KENNA 1990-08-30 06:00:00 TS 20.0000 -136.700 25 1010 hurdat_epa main 1894 1842 O_____________ hurdat_epa EP141990 20.0000 -136.700 TD 25 1010 -1 11 238
1990234N14248 1990 72 EP MM KENNA 1990-08-30 09:00:00 TS 19.7355 -137.225 main 1842 1781 P_____________ EP141990 19.7355 -137.225 TD 22 1010 -1 12 244
1990234N14248 1990 72 EP MM KENNA 1990-08-30 12:00:00 TS 19.5000 -137.800 20 1011 hurdat_epa main 1781 O_____________ hurdat_epa EP141990 19.5000 -137.800 TD 20 1011 -1 12 247

IBTrACS Databaseについて

本データベースは、米国NOAAが公開する1842年以降の世界の熱帯低気圧のベストトラックデータアーカイブInternational Best Track Archive for Climate Stewardship (IBTrACS)を、ウェブで閲覧しやすい形式に変換したものです。

最終更新日:2021-12-01